Corbett, New York
Current Conditions -  °F | °C
As of 11:35 PM on Friday 19 Dec 2014 (Local Time) from KMSV Reporting Station
Overcast Overcast  
Wind Chill: 13°   Ceiling: 1100
Heat Index: 25°   Visibility: 10mi
Dew Point: 19°   Wind: 13mph
Humidity: 80%   Direction: 310°NW
Pressure: 30.15"   Gusts: NA
Location:  42.0755°N, 75.0491°W
Report Text: KMSV 200435Z AUTO 31011KT 10SM OVC011 M04/M07 A3015 RMK AO1
Loading
Personal Weather Stations






























Interactive Weather Map New forecast layout! Learn more

10-Day Weather Forecast

Advertisements
Track Severe Weather on mobile